Adelanto, CA

2:39 PM PST on December 04, 2016 (GMT -0800)
Adelanto Ca | | Change Station

Elev 2858 ft 34.59 °N, 117.44 °W | Updated 16 seconds ago

Clear
Clear
68.0 °F
Feels Like 68.0 °F
N
2.0
Wind Variable Wind from SSW

Today
High -- | Low -- °F
--% Chance of Precip.
Yesterday
High -- | Low -- °F
Precip. -- in
Pressure 30.03 in
Visibility 10.0 miles
Clouds Clear
Dew Point 15 °F
Humidity 12%
Rainfall 0.00 in
Snow Depth Not available.
6:41 AM 4:38 PM
Waxing Crescent, 26% visible
METAR KVCV 042235Z AUTO 00000KT 10SM CLR 18/M13 A3003 RMK AO2
Pressure 30.03 in
Visibility 10.0 miles
Clouds Clear
Dew Point 15 °F
Humidity 12%
Rainfall 0.00 in
Snow Depth Not available.
6:41 AM 4:38 PM
Waxing Crescent, 26% visible
METAR KVCV 042235Z AUTO 00000KT 10SM CLR 18/M13 A3003 RMK AO2

10-Day Weather Forecast

Almanac

Astronomy

Dec. 04, 2016 Rise Set
Actual Time
Civil Twilight
Nautical Twilight
Astronomical Twilight
Moon
Length of Visible Light
Length of Day
Tomorrow will be .
, % of the Moon is Illuminated

Today's Extremes

State Highs State Lows

Community

WunderPhotos

Upload Photos

1,955,685 photos uploaded!

WunderBlog® & News

Nearby

Air Quality

  Air Quality AQ Index Pollutant
Not available.

Snow Depth

Station Depth Elevation

Earthquake Activity

City Distance Mag. Time & Date
Minimum magnitude displayed is 2.5.

Coastal Water Temperatures

Place Temperature

Stations

Nearby Weather Stations

Station Location Temp. Windchill Dew Point Humidity Wind Precip. Elev Updated Type
                   

Watches & Warnings

There are currently no watches in effect.